Check out our new PWSWeather beta!
PWSweather.com
Personal Weather Stations
Station Observations
IPOITOUC11
Poitou Charentes, MareuilFR 16170

Poitou CharentesMareuilFR 16170

Lat: 45.761952, Lon: -0.15817

Elevation: 143.2

Station Type: WMR300 Oregon scientific

http://jarnacmeteo.cabanova.com

Latest ConditionsUpdated 11:00:01 PM GMT+01:01 Monday, Feb 24, 2020
Currently Today's Max Today's Min Today's Average
Temperature 49.1°F9.5°C 54.3°F12.4°C 46.8°F8.2°C 49.0°F9.4°C
Dew Point 45.4°F7.4°C 48.0°F8.9°C 43.4°F6.3°C 46.1°F7.8°C
Winds 6.9 mph S11.1 kmh S 10.4 mph -16.7 kmh - - 6.0 mph 9.7 kmh
Wind Gusts 11.5 mph18.5 kmh 18.4 mph29.6 kmh - -
Humidity 87% 97% 76% 90%
Pressure 30.13 in1020.3 mb 30.49 in1032.5 mb 30.13 in1020.3 mb -
Precipitation - 0.01 in0.3 mm - -
Hour Temp Dew Point Humidity Winds Wind Gusts Pressure Precip Precip Rate Daily Precip Total
11:00 PM 49.1°F9.5°C 45.4°F7.4°C 87% 6.9 mph S11.1 kmh S 11.5 mph18.5 kmh 30.13 in1020.3 mb - 0.00 in0.0 mm 0.01 in0.3 mm
10:30 PM 49.1°F9.5°C 45.4°F7.4°C 87% 6.9 mph SSW11.1 kmh SSW 10.4 mph16.7 kmh 30.14 in1020.7 mb - 0.00 in0.0 mm 0.01 in0.3 mm
10:00 PM 49.3°F9.6°C 45.6°F7.6°C 87% 9.2 mph SSW14.8 kmh SSW 9.2 mph14.8 kmh 30.14 in1020.7 mb - 0.00 in0.0 mm 0.01 in0.3 mm
08:30 PM 49.1°F9.5°C 45.4°F7.4°C 87% 5.8 mph SW9.3 kmh SW 5.8 mph9.3 kmh 30.17 in1021.7 mb - 0.00 in0.0 mm 0.01 in0.3 mm
08:00 PM 49.1°F9.5°C 45.1°F7.3°C 86% 5.8 mph WSW9.3 kmh WSW 12.7 mph20.4 kmh 30.18 in1022.0 mb - 0.00 in0.0 mm 0.01 in0.3 mm
07:30 PM 48.9°F9.4°C 44.9°F7.2°C 86% 6.9 mph WSW11.1 kmh WSW 13.8 mph22.2 kmh 30.19 in1022.4 mb - 0.00 in0.0 mm 0.01 in0.3 mm
07:00 PM 48.9°F9.4°C 44.3°F6.8°C 84% 8.1 mph WSW13.0 kmh WSW 13.8 mph22.2 kmh 30.19 in1022.4 mb - 0.00 in0.0 mm 0.01 in0.3 mm
06:30 PM 49.6°F9.8°C 44.7°F7.1°C 83% 8.1 mph WSW13.0 kmh WSW 12.7 mph20.4 kmh 30.18 in1022.0 mb - 0.00 in0.0 mm 0.01 in0.3 mm
06:00 PM 51.4°F10.8°C 45.8°F7.7°C 81% 8.1 mph W13.0 kmh W 13.8 mph22.2 kmh 30.18 in1022.0 mb - 0.00 in0.0 mm 0.01 in0.3 mm
05:30 PM 53.4°F11.9°C 47.1°F8.4°C 79% 5.8 mph WSW9.3 kmh WSW 12.7 mph20.4 kmh 30.17 in1021.7 mb - 0.00 in0.0 mm 0.01 in0.3 mm
05:00 PM 54.3°F12.4°C 46.9°F8.3°C 76% 5.8 mph WSW9.3 kmh WSW 9.2 mph14.8 kmh 30.18 in1022.0 mb - 0.00 in0.0 mm 0.01 in0.3 mm
04:30 PM 53.8°F12.1°C 46.4°F8.0°C 76% 9.2 mph SW14.8 kmh SW 11.5 mph18.5 kmh 30.19 in1022.4 mb - 0.00 in0.0 mm 0.01 in0.3 mm
04:00 PM 53.2°F11.8°C 46.2°F7.9°C 77% 9.2 mph SSW14.8 kmh SSW 13.8 mph22.2 kmh 30.20 in1022.7 mb - 0.00 in0.0 mm 0.01 in0.3 mm
03:30 PM 52.3°F11.3°C 46.0°F7.8°C 79% 8.1 mph SW13.0 kmh SW 6.9 mph11.1 kmh 30.22 in1023.4 mb - 0.00 in0.0 mm 0.01 in0.3 mm
03:00 PM 52.2°F11.2°C 46.2°F7.9°C 80% 9.2 mph SW14.8 kmh SW 12.7 mph20.4 kmh 30.24 in1024.0 mb - 0.00 in0.0 mm 0.01 in0.3 mm
02:30 PM 50.4°F10.2°C 45.1°F7.3°C 82% 8.1 mph SSW13.0 kmh SSW 9.2 mph14.8 kmh 30.26 in1024.7 mb - 0.00 in0.0 mm 0.01 in0.3 mm
02:00 PM 49.6°F9.8°C 45.0°F7.2°C 84% 6.9 mph S11.1 kmh S 10.4 mph16.7 kmh 30.27 in1025.1 mb - 0.00 in0.0 mm 0.01 in0.3 mm
01:30 PM 47.8°F8.8°C 44.1°F6.7°C 87% 8.1 mph SSW13.0 kmh SSW 11.5 mph18.5 kmh 30.30 in1026.1 mb - 0.00 in0.0 mm 0.01 in0.3 mm
01:00 PM 47.3°F8.5°C 43.9°F6.6°C 88% 9.2 mph S14.8 kmh S 12.7 mph20.4 kmh 30.32 in1026.8 mb - 0.00 in0.0 mm 0.01 in0.3 mm
12:30 PM 47.3°F8.5°C 43.7°F6.5°C 87% 6.9 mph SSW11.1 kmh SSW 13.8 mph22.2 kmh 30.32 in1026.8 mb - 0.00 in0.0 mm 0.01 in0.3 mm
12:00 PM 46.8°F8.2°C 43.4°F6.3°C 88% 10.4 mph SSW16.7 kmh SSW 18.4 mph29.6 kmh 30.33 in1027.1 mb - 0.00 in0.0 mm 0.01 in0.3 mm
11:30 AM 46.8°F8.2°C 43.4°F6.3°C 88% 10.4 mph SSW16.7 kmh SSW 16.1 mph25.9 kmh 30.34 in1027.4 mb - 0.00 in0.0 mm 0.01 in0.3 mm
11:00 AM 46.9°F8.3°C 44.1°F6.7°C 90% 9.2 mph S14.8 kmh S 13.8 mph22.2 kmh 30.34 in1027.4 mb - 0.00 in0.0 mm 0.01 in0.3 mm
10:00 AM 46.8°F8.2°C 45.1°F7.3°C 94% 8.1 mph S13.0 kmh S 8.1 mph13.0 kmh 30.35 in1027.8 mb - 0.00 in0.0 mm 0.01 in0.3 mm
09:30 AM 47.1°F8.4°C 46.0°F7.8°C 96% 6.9 mph S11.1 kmh S 11.5 mph18.5 kmh 30.35 in1027.8 mb - 0.00 in0.0 mm 0.01 in0.3 mm
09:00 AM 47.5°F8.6°C 46.7°F8.2°C 97% 5.8 mph S9.3 kmh S 5.8 mph9.3 kmh 30.36 in1028.1 mb - 0.00 in0.0 mm 0.01 in0.3 mm
08:30 AM 47.7°F8.7°C 46.9°F8.3°C 97% 5.8 mph S9.3 kmh S 6.9 mph11.1 kmh 30.36 in1028.1 mb - 0.00 in0.0 mm 0.01 in0.3 mm
08:00 AM 47.5°F8.6°C 46.7°F8.2°C 97% 5.8 mph S9.3 kmh S 6.9 mph11.1 kmh 30.36 in1028.1 mb - 0.01 in0.3 mm 0.01 in0.3 mm
07:30 AM 47.7°F8.7°C 46.9°F8.3°C 97% 4.6 mph S7.4 kmh S 10.4 mph16.7 kmh 30.37 in1028.4 mb - 0.01 in0.3 mm 0.01 in0.3 mm
07:00 AM 47.7°F8.7°C 46.9°F8.3°C 97% 5.8 mph S9.3 kmh S 8.1 mph13.0 kmh 30.38 in1028.8 mb - 0.00 in0.0 mm 0.00 in0.0 mm
06:30 AM 47.8°F8.8°C 47.0°F8.3°C 97% 4.6 mph S7.4 kmh S 5.8 mph9.3 kmh 30.39 in1029.1 mb - 0.00 in0.0 mm 0.00 in0.0 mm
06:00 AM 47.8°F8.8°C 47.0°F8.3°C 97% 3.5 mph S5.6 kmh S 5.8 mph9.3 kmh 30.39 in1029.1 mb - 0.00 in0.0 mm 0.00 in0.0 mm
05:30 AM 47.8°F8.8°C 47.0°F8.3°C 97% 4.6 mph SW7.4 kmh SW 1.2 mph1.9 kmh 30.40 in1029.5 mb - 0.00 in0.0 mm 0.00 in0.0 mm
05:00 AM 48.0°F8.9°C 47.2°F8.4°C 97% 2.3 mph SSW3.7 kmh SSW 4.6 mph7.4 kmh 30.40 in1029.5 mb - 0.00 in0.0 mm 0.00 in0.0 mm
04:30 AM 48.4°F9.1°C 47.6°F8.7°C 97% 2.3 mph SW3.7 kmh SW 3.5 mph5.6 kmh 30.41 in1029.8 mb - 0.00 in0.0 mm 0.00 in0.0 mm
04:00 AM 48.4°F9.1°C 47.6°F8.7°C 97% 1.2 mph WSW1.9 kmh WSW 1.2 mph1.9 kmh 30.42 in1030.1 mb - 0.00 in0.0 mm 0.00 in0.0 mm
03:30 AM 48.4°F9.1°C 47.6°F8.7°C 97% 2.3 mph SSW3.7 kmh SSW 4.6 mph7.4 kmh 30.43 in1030.5 mb - 0.00 in0.0 mm 0.00 in0.0 mm
03:00 AM 48.6°F9.2°C 47.7°F8.7°C 97% 2.3 mph SSW3.7 kmh SSW 3.5 mph5.6 kmh 30.45 in1031.2 mb - 0.00 in0.0 mm 0.00 in0.0 mm
02:30 AM 48.7°F9.3°C 47.9°F8.8°C 97% 3.5 mph SW5.6 kmh SW 5.8 mph9.3 kmh 30.46 in1031.5 mb - 0.00 in0.0 mm 0.00 in0.0 mm
02:00 AM 48.7°F9.3°C 47.9°F8.8°C 97% 2.3 mph SW3.7 kmh SW 4.6 mph7.4 kmh 30.46 in1031.5 mb - 0.00 in0.0 mm 0.00 in0.0 mm
01:30 AM 48.9°F9.4°C 47.8°F8.8°C 96% 2.3 mph SSW3.7 kmh SSW 6.9 mph11.1 kmh 30.47 in1031.8 mb - 0.00 in0.0 mm 0.00 in0.0 mm
01:00 AM 49.1°F9.5°C 48.0°F8.9°C 96% 3.5 mph W5.6 kmh W 4.6 mph7.4 kmh 30.48 in1032.2 mb - 0.00 in0.0 mm 0.00 in0.0 mm
12:30 AM 49.3°F9.6°C 47.9°F8.8°C 95% 2.3 mph WSW3.7 kmh WSW 6.9 mph11.1 kmh 30.48 in1032.2 mb - 0.00 in0.0 mm 0.00 in0.0 mm
12:00 AM 49.5°F9.7°C 47.8°F8.8°C 94% 3.5 mph WSW5.6 kmh WSW 4.6 mph7.4 kmh 30.49 in1032.5 mb - 0.00 in0.0 mm 0.00 in0.0 mm